createdAt,value
2023-11-26T00:01:31.394Z,51.13
2023-11-26T00:04:01.198Z,61.10
2023-11-26T00:06:29.861Z,50.97
2023-11-26T00:08:57.231Z,55.17
2023-11-26T00:11:24.770Z,44.33
2023-11-26T00:13:52.530Z,46.47
2023-11-26T00:16:20.400Z,36.50
2023-11-26T00:18:48.382Z,39.50
2023-11-26T00:21:17.797Z,45.20
2023-11-26T00:23:45.122Z,49.58
2023-11-26T00:26:14.091Z,54.00
2023-11-26T00:28:46.071Z,46.60
2023-11-26T00:31:13.370Z,42.92
2023-11-26T00:33:46.087Z,52.47
2023-11-26T00:36:16.157Z,40.70
2023-11-26T00:38:45.772Z,51.35
2023-11-26T00:41:17.304Z,42.00
2023-11-26T00:43:45.261Z,48.10
2023-11-26T00:46:12.731Z,58.47
2023-11-26T00:48:40.102Z,52.25
2023-11-26T00:51:07.594Z,40.15
2023-11-26T00:53:36.586Z,43.13
2023-11-26T00:56:07.216Z,49.95
2023-11-26T00:58:35.125Z,43.55
2023-11-26T01:01:02.414Z,46.70
2023-11-26T01:03:30.219Z,36.30
2023-11-26T01:05:57.485Z,41.90
2023-11-26T01:08:25.856Z,45.47
2023-11-26T01:10:53.296Z,41.58
2023-11-26T01:13:20.858Z,50.90
2023-11-26T01:15:48.635Z,45.65
2023-11-26T01:18:16.358Z,43.22
2023-11-26T01:20:45.217Z,36.95
2023-11-26T01:23:13.000Z,41.20
2023-11-26T01:25:40.897Z,33.63
2023-11-26T01:28:08.302Z,46.28
2023-11-26T01:30:36.119Z,40.88
2023-11-26T01:33:03.768Z,42.08
2023-11-26T01:35:31.084Z,45.95
2023-11-26T01:37:59.695Z,44.67
2023-11-26T01:40:27.488Z,38.35
2023-11-26T01:42:54.746Z,34.70
2023-11-26T01:45:22.805Z,29.75
2023-11-26T01:47:50.409Z,52.38
2023-11-26T01:50:23.104Z,33.50
2023-11-26T01:52:51.784Z,54.97
2023-11-26T01:55:20.466Z,51.33
2023-11-26T01:57:49.082Z,43.67
2023-11-26T02:00:18.042Z,37.22
2023-11-26T02:02:46.409Z,40.92
2023-11-26T02:05:14.613Z,39.72
2023-11-26T02:07:43.146Z,37.40
2023-11-26T02:10:10.976Z,44.97
2023-11-26T02:12:38.677Z,43.40
2023-11-26T02:15:07.482Z,48.08
2023-11-26T02:17:36.913Z,42.40
2023-11-26T02:20:05.661Z,31.80
2023-11-26T02:22:34.065Z,48.25
2023-11-26T02:25:01.552Z,39.88
2023-11-26T02:27:28.871Z,45.08
2023-11-26T02:29:56.313Z,51.63
2023-11-26T02:32:23.597Z,37.85
2023-11-26T02:34:51.372Z,34.50
2023-11-26T02:37:19.004Z,32.47
2023-11-26T02:39:46.672Z,47.50
2023-11-26T02:42:14.004Z,45.83
2023-11-26T02:44:41.709Z,39.35
2023-11-26T02:47:09.050Z,52.83
2023-11-26T02:49:36.496Z,33.30
2023-11-26T02:52:04.603Z,53.70
2023-11-26T02:54:31.917Z,40.47
2023-11-26T02:56:59.663Z,38.60
2023-11-26T02:59:28.044Z,34.95
2023-11-26T03:01:59.598Z,44.28
2023-11-26T03:04:28.315Z,36.90
2023-11-26T03:06:56.128Z,38.92
2023-11-26T03:09:36.025Z,34.88
2023-11-26T03:12:21.770Z,38.90
2023-11-26T03:14:54.949Z,38.28
2023-11-26T03:17:23.973Z,38.20
2023-11-26T03:19:51.429Z,37.97
2023-11-26T03:22:19.125Z,42.90
2023-11-26T03:24:46.684Z,34.22
2023-11-26T03:27:14.235Z,40.97
2023-11-26T03:29:41.880Z,29.00
2023-11-26T03:32:10.825Z,33.20
2023-11-26T03:34:38.260Z,35.10
2023-11-26T03:37:05.614Z,32.78
2023-11-26T03:39:37.560Z,33.08
2023-11-26T03:42:13.577Z,31.90
2023-11-26T03:44:47.440Z,37.05
2023-11-26T03:47:17.337Z,38.75
2023-11-26T03:49:44.625Z,38.10
2023-11-26T03:52:11.881Z,40.72
2023-11-26T03:54:39.253Z,36.45
2023-11-26T03:57:08.924Z,40.53
2023-11-26T03:59:38.083Z,30.88
2023-11-26T04:02:05.734Z,35.67
2023-11-26T04:04:35.963Z,43.50
2023-11-26T04:07:05.063Z,36.47
2023-11-26T04:09:32.509Z,38.95
2023-11-26T04:12:00.162Z,35.80
2023-11-26T04:14:32.137Z,41.85
2023-11-26T04:16:59.916Z,25.08
2023-11-26T04:19:27.705Z,43.78
2023-11-26T04:21:54.937Z,29.90
2023-11-26T04:24:22.302Z,34.75
2023-11-26T04:26:49.663Z,40.05
2023-11-26T04:29:17.440Z,28.55
2023-11-26T04:31:45.024Z,34.33
2023-11-26T04:34:12.398Z,38.25
2023-11-26T04:36:39.682Z,30.08
2023-11-26T04:39:09.563Z,27.60
2023-11-26T04:41:37.061Z,41.50
2023-11-26T04:44:04.602Z,40.05
2023-11-26T04:46:32.024Z,28.08
2023-11-26T04:48:59.382Z,27.42
2023-11-26T04:51:26.818Z,36.70
2023-11-26T04:53:54.836Z,38.17
2023-11-26T04:56:22.320Z,35.47
2023-11-26T04:58:49.627Z,37.03
2023-11-26T05:01:17.510Z,23.73
2023-11-26T05:03:45.399Z,29.58
2023-11-26T05:06:14.510Z,39.78
2023-11-26T05:08:44.855Z,34.60
2023-11-26T05:11:12.433Z,26.02
2023-11-26T05:13:39.917Z,33.60
2023-11-26T05:16:07.787Z,27.35
2023-11-26T05:18:35.195Z,43.63
2023-11-26T05:21:03.616Z,34.65
2023-11-26T05:23:30.929Z,28.70
2023-11-26T05:25:58.602Z,33.75
2023-11-26T05:28:26.431Z,31.27
2023-11-26T05:30:53.779Z,30.23
2023-11-26T05:33:21.062Z,31.65
2023-11-26T05:35:48.293Z,41.75
2023-11-26T05:38:15.729Z,31.40
2023-11-26T05:40:43.189Z,32.83
2023-11-26T05:43:10.667Z,29.55
2023-11-26T05:45:37.922Z,34.63
2023-11-26T05:48:05.751Z,25.10
2023-11-26T05:50:33.685Z,38.67
2023-11-26T05:53:01.562Z,37.85
2023-11-26T05:55:29.113Z,30.27
2023-11-26T05:57:56.508Z,41.53
2023-11-26T06:00:24.470Z,37.33
2023-11-26T06:02:54.654Z,33.22
2023-11-26T06:05:21.954Z,25.92
2023-11-26T06:07:49.704Z,30.67
2023-11-26T06:10:17.225Z,29.23
2023-11-26T06:12:44.579Z,27.70
2023-11-26T06:15:12.373Z,30.75
2023-11-26T06:17:39.652Z,35.70
2023-11-26T06:20:09.786Z,33.45
2023-11-26T06:22:37.145Z,32.50
2023-11-26T06:25:06.683Z,38.47
2023-11-26T06:27:34.114Z,41.90
2023-11-26T06:30:01.498Z,33.78
2023-11-26T06:32:28.763Z,27.98
2023-11-26T06:34:56.169Z,28.75
2023-11-26T06:37:25.202Z,44.05
2023-11-26T06:39:54.261Z,21.17
2023-11-26T06:42:21.577Z,30.98
2023-11-26T06:44:49.238Z,26.35
2023-11-26T06:47:16.748Z,24.83
2023-11-26T06:49:44.105Z,39.55
2023-11-26T06:52:11.428Z,21.95
2023-11-26T06:54:39.492Z,26.88
2023-11-26T06:57:07.067Z,32.33
2023-11-26T06:59:35.982Z,35.92
2023-11-26T07:02:05.555Z,35.40
2023-11-26T07:04:33.534Z,22.08
2023-11-26T07:07:00.884Z,30.35
2023-11-26T07:09:28.403Z,23.25
2023-11-26T07:11:55.886Z,27.63
2023-11-26T07:14:23.946Z,31.20
2023-11-26T07:16:55.678Z,26.77
2023-11-26T07:19:22.959Z,23.75
2023-11-26T07:21:50.804Z,26.95
2023-11-26T07:24:18.605Z,22.90
2023-11-26T07:26:45.891Z,23.40
2023-11-26T07:29:13.274Z,30.25
2023-11-26T07:31:41.077Z,25.27
2023-11-26T07:34:08.290Z,39.80
2023-11-26T07:36:36.062Z,31.55
2023-11-26T07:39:04.548Z,30.27
2023-11-26T07:41:31.729Z,26.58
2023-11-26T07:44:01.044Z,25.05
2023-11-26T07:46:28.537Z,39.88
2023-11-26T07:48:56.400Z,27.92
2023-11-26T07:51:23.990Z,27.38
2023-11-26T07:53:51.592Z,36.35
2023-11-26T07:56:18.914Z,23.20
2023-11-26T07:58:46.888Z,42.58
2023-11-26T08:01:14.949Z,26.77
2023-11-26T08:03:42.479Z,31.00
2023-11-26T08:06:14.338Z,33.83
2023-11-26T08:08:44.455Z,30.60
2023-11-26T08:11:14.040Z,27.25
2023-11-26T08:13:42.820Z,34.95
2023-11-26T08:16:11.278Z,28.38
2023-11-26T08:18:41.057Z,33.88
2023-11-26T08:21:08.745Z,30.55
2023-11-26T08:23:45.749Z,25.38
2023-11-26T08:26:16.605Z,28.08
2023-11-26T08:28:44.911Z,28.63
2023-11-26T08:31:13.199Z,33.55
2023-11-26T08:33:44.849Z,33.20
2023-11-26T08:36:14.084Z,28.58
2023-11-26T08:38:43.515Z,30.75
2023-11-26T08:41:12.456Z,25.35
2023-11-26T08:43:42.768Z,32.03
2023-11-26T08:46:15.253Z,27.88
2023-11-26T08:48:46.714Z,29.90
2023-11-26T08:51:15.771Z,29.83
2023-11-26T08:53:44.444Z,48.83
2023-11-26T08:56:12.685Z,32.83
2023-11-26T08:58:40.313Z,46.25
2023-11-26T09:01:07.961Z,36.30
2023-11-26T09:03:35.457Z,29.55
2023-11-26T09:06:02.838Z,44.35
2023-11-26T09:08:30.757Z,37.33
2023-11-26T09:10:59.855Z,39.83
2023-11-26T09:13:33.139Z,38.55
2023-11-26T09:16:01.719Z,30.20
2023-11-26T09:18:29.551Z,37.53
2023-11-26T09:20:56.789Z,27.25
2023-11-26T09:23:24.552Z,33.90
2023-11-26T09:25:51.878Z,39.95
2023-11-26T09:28:19.659Z,31.35
2023-11-26T09:30:46.960Z,34.65
2023-11-26T09:33:14.693Z,29.10
2023-11-26T09:35:42.386Z,44.22
2023-11-26T09:38:10.334Z,31.90
2023-11-26T09:40:44.068Z,45.22
2023-11-26T09:43:11.536Z,36.58
2023-11-26T09:45:39.058Z,35.90
2023-11-26T09:48:10.488Z,32.47
2023-11-26T09:50:39.027Z,27.13
2023-11-26T09:53:08.605Z,37.53
2023-11-26T09:55:41.192Z,43.55
2023-11-26T09:58:08.894Z,27.40
2023-11-26T10:00:36.296Z,34.92
2023-11-26T10:03:04.569Z,27.17
2023-11-26T10:05:35.888Z,28.85
2023-11-26T10:08:04.045Z,30.20
2023-11-26T10:10:31.656Z,29.58
2023-11-26T10:13:01.416Z,39.30
2023-11-26T10:15:31.606Z,38.38
2023-11-26T10:18:08.882Z,35.10
2023-11-26T10:20:37.215Z,33.85
2023-11-26T10:23:04.690Z,35.35
2023-11-26T10:25:32.506Z,32.08
2023-11-26T10:28:01.219Z,33.05
2023-11-26T10:30:30.395Z,32.00
2023-11-26T10:33:06.738Z,27.00
2023-11-26T10:35:57.178Z,27.93
2023-11-26T10:38:29.999Z,39.97
2023-11-26T10:40:58.075Z,30.42
2023-11-26T10:43:25.774Z,28.73
2023-11-26T10:45:53.535Z,35.25
2023-11-26T10:48:24.041Z,28.17
2023-11-26T10:51:29.143Z,33.20
2023-11-26T10:54:22.639Z,26.85
2023-11-26T10:56:55.197Z,31.45
2023-11-26T10:59:23.583Z,32.35
2023-11-26T11:01:52.141Z,29.90
2023-11-26T11:04:21.968Z,37.45
2023-11-26T11:06:49.375Z,36.85
2023-11-26T11:09:28.474Z,30.23
2023-11-26T11:12:11.627Z,28.10
2023-11-26T11:14:39.137Z,26.95
2023-11-26T11:17:06.562Z,32.80
2023-11-26T11:19:54.175Z,24.45
2023-11-26T11:22:33.707Z,34.63
2023-11-26T11:25:14.584Z,23.85
2023-11-26T11:27:52.246Z,22.45
2023-11-26T11:30:41.545Z,27.02
2023-11-26T11:33:12.129Z,33.40
2023-11-26T11:35:42.609Z,26.63
2023-11-26T11:38:11.139Z,24.17
2023-11-26T11:41:00.710Z,30.35
2023-11-26T11:43:28.722Z,17.13
2023-11-26T11:45:56.233Z,29.58
2023-11-26T11:48:38.904Z,28.98
2023-11-26T11:51:34.313Z,28.85
2023-11-26T11:54:10.455Z,21.13
2023-11-26T11:56:42.155Z,27.85
2023-11-26T11:59:10.577Z,22.88
2023-11-26T12:01:39.756Z,23.23
2023-11-26T12:04:11.291Z,26.83
2023-11-26T12:06:42.784Z,27.55
2023-11-26T12:09:13.473Z,20.65
2023-11-26T12:11:45.066Z,25.65
2023-11-26T12:14:12.310Z,23.88
2023-11-26T12:16:39.714Z,22.77
2023-11-26T12:19:08.178Z,24.67
2023-11-26T12:21:35.501Z,20.38
2023-11-26T12:24:03.606Z,29.30
2023-11-26T12:26:36.854Z,27.08
2023-11-26T12:29:04.158Z,24.38
2023-11-26T12:31:32.885Z,18.48
2023-11-26T12:34:01.050Z,21.67
2023-11-26T12:36:28.872Z,35.88
2023-11-26T12:38:57.113Z,16.67
2023-11-26T12:41:24.727Z,26.83
2023-11-26T12:43:55.922Z,16.70
2023-11-26T12:46:26.211Z,19.63
2023-11-26T12:48:55.608Z,20.17
2023-11-26T12:51:24.743Z,16.13
2023-11-26T12:53:52.878Z,16.98
2023-11-26T12:56:22.803Z,33.25
2023-11-26T12:58:56.825Z,14.30
2023-11-26T13:01:27.587Z,18.52
2023-11-26T13:03:55.115Z,13.73
2023-11-26T13:06:26.612Z,26.92
2023-11-26T13:09:09.809Z,18.60
2023-11-26T13:11:39.491Z,17.90
2023-11-26T13:14:12.188Z,7.72
2023-11-26T13:16:44.446Z,14.95
2023-11-26T13:19:13.297Z,14.63
2023-11-26T13:21:48.662Z,14.13
2023-11-26T13:24:16.711Z,11.23
2023-11-26T13:26:44.251Z,16.70
2023-11-26T13:29:12.066Z,13.05
2023-11-26T13:31:41.627Z,10.27
2023-11-26T13:34:10.073Z,16.92
2023-11-26T13:36:37.824Z,10.77
2023-11-26T13:39:06.624Z,16.58
2023-11-26T13:41:33.921Z,13.48
2023-11-26T13:44:01.527Z,24.35
2023-11-26T13:46:28.859Z,20.08
2023-11-26T13:48:56.225Z,13.02
2023-11-26T13:51:23.601Z,17.83
2023-11-26T13:53:50.919Z,16.20
2023-11-26T13:56:18.262Z,21.17
2023-11-26T13:58:46.141Z,12.23
2023-11-26T14:01:13.732Z,15.90
2023-11-26T14:03:41.197Z,18.70
2023-11-26T14:06:10.322Z,22.48
2023-11-26T14:08:39.174Z,30.58
2023-11-26T14:11:07.044Z,13.60
2023-11-26T14:13:34.302Z,18.50
2023-11-26T14:16:01.807Z,27.45
2023-11-26T14:18:30.369Z,23.83
2023-11-26T14:20:58.572Z,20.08
2023-11-26T14:23:25.845Z,27.30
2023-11-26T14:25:53.257Z,21.25
2023-11-26T14:28:20.987Z,27.15
2023-11-26T14:30:48.311Z,21.40
2023-11-26T14:33:15.635Z,39.08
2023-11-26T14:35:44.386Z,21.92
2023-11-26T14:38:11.845Z,25.55
2023-11-26T14:40:39.231Z,20.63
2023-11-26T14:43:06.622Z,25.15
2023-11-26T14:45:34.164Z,18.45
2023-11-26T14:48:01.543Z,25.48
2023-11-26T14:50:29.312Z,24.33
2023-11-26T14:52:56.691Z,25.90
2023-11-26T14:55:24.547Z,23.67
2023-11-26T14:57:51.891Z,33.88
2023-11-26T15:00:19.789Z,29.25
2023-11-26T15:02:47.203Z,38.78
2023-11-26T15:05:15.397Z,28.60
2023-11-26T15:07:43.282Z,28.80
2023-11-26T15:10:12.309Z,28.63
2023-11-26T15:12:40.197Z,26.35
2023-11-26T15:15:10.034Z,27.17
2023-11-26T15:17:38.493Z,20.38
2023-11-26T15:20:07.833Z,29.08
2023-11-26T15:22:35.162Z,30.33
2023-11-26T15:25:02.835Z,21.25
2023-11-26T15:27:32.037Z,30.52
2023-11-26T15:29:59.524Z,23.80
2023-11-26T15:32:30.021Z,27.38
2023-11-26T15:34:57.708Z,22.00
2023-11-26T15:37:26.220Z,43.45
2023-11-26T15:39:53.763Z,21.35
2023-11-26T15:42:21.116Z,25.77
2023-11-26T15:44:48.960Z,24.00
2023-11-26T15:47:17.551Z,28.63
2023-11-26T15:49:45.133Z,28.27
2023-11-26T15:52:12.909Z,34.85
2023-11-26T15:54:42.461Z,29.38
2023-11-26T15:57:10.065Z,34.58
2023-11-26T15:59:37.455Z,25.77
2023-11-26T16:02:05.044Z,36.33
2023-11-26T16:04:32.859Z,42.20
2023-11-26T16:07:00.973Z,42.78
2023-11-26T16:09:30.097Z,31.45
2023-11-26T16:12:02.741Z,29.33
2023-11-26T16:14:30.299Z,32.35
2023-11-26T16:17:05.246Z,35.92
2023-11-26T16:19:44.456Z,39.08
2023-11-26T16:22:12.247Z,37.90
2023-11-26T16:24:39.715Z,40.30
2023-11-26T16:27:07.641Z,25.42
2023-11-26T16:29:34.890Z,35.55
2023-11-26T16:32:02.238Z,25.38
2023-11-26T16:34:29.675Z,23.67
2023-11-26T16:36:57.030Z,32.22
2023-11-26T16:39:24.385Z,20.88
2023-11-26T16:41:54.806Z,23.52
2023-11-26T16:44:24.152Z,18.10
2023-11-26T16:46:52.051Z,28.27
2023-11-26T16:49:21.277Z,22.55
2023-11-26T16:51:49.012Z,12.77
2023-11-26T16:54:17.390Z,20.30
2023-11-26T16:56:45.740Z,21.23
2023-11-26T16:59:14.453Z,27.50
2023-11-26T17:01:41.861Z,20.33
2023-11-26T17:04:10.133Z,17.35
2023-11-26T17:06:38.251Z,19.73
2023-11-26T17:09:05.556Z,12.50
2023-11-26T17:11:32.923Z,16.08
2023-11-26T17:14:00.349Z,12.32
2023-11-26T17:16:27.851Z,14.38
2023-11-26T17:18:55.724Z,13.02
2023-11-26T17:21:23.703Z,14.32
2023-11-26T17:23:53.183Z,8.57
2023-11-26T17:26:22.473Z,16.30
2023-11-26T17:28:49.910Z,15.38
2023-11-26T17:31:26.576Z,10.82
2023-11-26T17:33:55.061Z,6.70
2023-11-26T17:36:23.090Z,9.50
2023-11-26T17:38:50.805Z,13.05
2023-11-26T17:41:18.941Z,9.80
2023-11-26T17:43:46.356Z,15.48
2023-11-26T17:46:13.786Z,12.15
2023-11-26T17:48:41.297Z,12.57
2023-11-26T17:51:08.888Z,17.70
2023-11-26T17:53:36.314Z,12.02
2023-11-26T17:56:04.093Z,9.98
2023-11-26T17:58:31.958Z,9.15
2023-11-26T18:00:59.710Z,5.10
2023-11-26T18:03:27.023Z,8.25
2023-11-26T18:05:54.806Z,6.38
2023-11-26T18:08:22.744Z,6.55
2023-11-26T18:10:50.064Z,11.50
2023-11-26T18:13:17.420Z,5.80
2023-11-26T18:15:45.417Z,2.85
2023-11-26T18:18:12.729Z,5.88
2023-11-26T18:20:41.525Z,6.78
2023-11-26T18:23:09.421Z,6.75
2023-11-26T18:25:37.175Z,2.20
2023-11-26T18:28:04.676Z,10.15
2023-11-26T18:30:32.338Z,3.08
2023-11-26T18:33:01.500Z,3.17
2023-11-26T18:35:29.412Z,3.30
2023-11-26T18:37:57.325Z,6.90
2023-11-26T18:40:24.981Z,2.25
2023-11-26T18:42:53.159Z,3.85
2023-11-26T18:45:21.969Z,3.88
2023-11-26T18:47:51.911Z,8.63
2023-11-26T18:50:19.875Z,5.28
2023-11-26T18:52:47.109Z,2.40
2023-11-26T18:55:15.686Z,6.28
2023-11-26T18:57:44.786Z,6.30
2023-11-26T19:00:15.200Z,4.57
2023-11-26T19:02:42.920Z,4.85
2023-11-26T19:05:11.324Z,5.68
2023-11-26T19:07:38.824Z,4.00
2023-11-26T19:10:06.874Z,3.97
2023-11-26T19:12:34.413Z,2.65
2023-11-26T19:15:01.939Z,9.10
2023-11-26T19:17:29.677Z,4.38
2023-11-26T19:19:57.522Z,3.35
2023-11-26T19:22:24.972Z,3.30
2023-11-26T19:24:52.721Z,3.53
2023-11-26T19:27:20.259Z,7.82
2023-11-26T19:29:48.134Z,2.30
2023-11-26T19:32:15.325Z,1.80
2023-11-26T19:34:43.133Z,3.08
2023-11-26T19:37:12.966Z,1.55
2023-11-26T19:39:44.524Z,2.15
2023-11-26T19:42:14.539Z,3.42
2023-11-26T19:44:42.285Z,1.23
2023-11-26T19:47:10.100Z,3.17
2023-11-26T19:49:37.493Z,4.90
2023-11-26T19:52:05.139Z,1.38
2023-11-26T19:54:32.554Z,2.53
2023-11-26T19:57:00.596Z,1.58
2023-11-26T19:59:28.342Z,3.25
2023-11-26T20:01:55.716Z,3.58
2023-11-26T20:04:23.159Z,5.10
2023-11-26T20:06:51.256Z,1.88
2023-11-26T20:09:19.068Z,2.15
2023-11-26T20:11:47.470Z,1.70
2023-11-26T20:14:15.118Z,3.00
2023-11-26T20:16:42.391Z,3.58
2023-11-26T20:19:10.303Z,2.35
2023-11-26T20:21:38.607Z,2.47
2023-11-26T20:24:07.522Z,3.40
2023-11-26T20:26:35.417Z,1.65
2023-11-26T20:29:03.558Z,3.20
2023-11-26T20:31:31.425Z,5.38
2023-11-26T20:34:03.999Z,5.38
2023-11-26T20:36:33.467Z,2.60
2023-11-26T20:39:01.435Z,3.80
2023-11-26T20:41:29.981Z,1.65
2023-11-26T20:43:58.989Z,2.75
2023-11-26T20:46:26.790Z,2.30
2023-11-26T20:48:54.466Z,3.10
2023-11-26T20:51:26.150Z,2.47
2023-11-26T20:53:56.271Z,5.53
2023-11-26T20:56:24.686Z,2.75
2023-11-26T20:58:52.376Z,5.93
2023-11-26T21:01:20.038Z,2.88
2023-11-26T21:03:47.563Z,1.45
2023-11-26T21:06:15.430Z,2.38
2023-11-26T21:08:42.759Z,2.33
2023-11-26T21:11:12.181Z,1.75
2023-11-26T21:13:41.214Z,1.67
2023-11-26T21:16:08.926Z,6.57
2023-11-26T21:18:36.370Z,2.33
2023-11-26T21:21:04.180Z,3.35
2023-11-26T21:23:31.813Z,5.05
2023-11-26T21:25:59.445Z,4.50
2023-11-26T21:28:26.671Z,6.22
2023-11-26T21:30:54.057Z,7.20
2023-11-26T21:33:21.561Z,7.80
2023-11-26T21:35:49.018Z,4.95
2023-11-26T21:38:16.709Z,6.75
2023-11-26T21:40:50.277Z,6.00
2023-11-26T21:43:24.732Z,5.70
2023-11-26T21:45:52.635Z,7.50
2023-11-26T21:48:20.773Z,9.43
2023-11-26T21:50:48.728Z,7.70
2023-11-26T21:53:16.415Z,9.38
2023-11-26T21:55:45.799Z,8.07
2023-11-26T21:58:13.675Z,5.47
2023-11-26T22:00:42.275Z,7.22
2023-11-26T22:03:09.929Z,8.68
2023-11-26T22:05:37.432Z,4.38
2023-11-26T22:08:05.042Z,11.05
2023-11-26T22:10:32.563Z,12.05
2023-11-26T22:13:00.308Z,9.73
2023-11-26T22:15:27.529Z,9.80
2023-11-26T22:17:55.330Z,8.35
2023-11-26T22:20:22.558Z,3.85
2023-11-26T22:22:49.836Z,7.85
2023-11-26T22:25:17.268Z,9.15
2023-11-26T22:27:44.709Z,6.82
2023-11-26T22:30:13.298Z,8.68
2023-11-26T22:32:41.334Z,8.80
2023-11-26T22:35:11.942Z,7.38
2023-11-26T22:37:40.516Z,7.78
2023-11-26T22:40:08.476Z,8.30
2023-11-26T22:42:35.823Z,11.48
2023-11-26T22:45:03.513Z,12.75
2023-11-26T22:47:31.255Z,14.77
2023-11-26T22:49:58.418Z,13.95
2023-11-26T22:52:25.699Z,13.75
2023-11-26T22:54:52.989Z,14.93
2023-11-26T22:57:20.387Z,16.20
2023-11-26T22:59:47.634Z,19.77
2023-11-26T23:02:15.078Z,11.18
2023-11-26T23:04:42.496Z,15.05
2023-11-26T23:07:09.797Z,6.10
2023-11-26T23:09:38.703Z,7.78
2023-11-26T23:12:10.006Z,6.22
2023-11-26T23:14:37.835Z,10.73
2023-11-26T23:17:05.132Z,6.45
2023-11-26T23:19:32.425Z,3.42
2023-11-26T23:21:59.836Z,4.65
2023-11-26T23:24:27.174Z,5.93
2023-11-26T23:26:54.974Z,4.13
2023-11-26T23:29:22.314Z,3.47
2023-11-26T23:31:53.247Z,2.90
2023-11-26T23:34:21.204Z,3.88
2023-11-26T23:36:48.971Z,2.92
2023-11-26T23:39:16.672Z,3.63
2023-11-26T23:41:44.320Z,3.20
2023-11-26T23:44:11.580Z,2.30
2023-11-26T23:46:38.990Z,3.72
2023-11-26T23:49:09.302Z,4.97
2023-11-26T23:51:36.935Z,2.58
2023-11-26T23:54:04.430Z,4.53
2023-11-26T23:56:31.748Z,1.73
2023-11-26T23:58:59.566Z,3.90
